Time;durP1;ratioP1;P1;durP2;ratioP2;P2;SDS_P1;SDS_P2;PMS_P1;PMS_P2;Temp;Humidity;BMP_temperature;BMP_pressure;BME280_temperature;BME280_humidity;BME280_pressure;Samples;Min_cycle;Max_cycle;Signal;HPM_P1;HPM_P2
2021/07/27 00:03:34;;;;;;;8.43;7.55;;;23.20;71.10;;;;;;10447408;28;20115;-47
2021/07/27 00:08:36;;;;;;;8.75;7.82;;;23.20;71.10;;;;;;10455404;28;20033;-46
2021/07/27 00:13:39;;;;;;;10.07;8.38;;;23.20;71.10;;;;;;10455469;28;20021;-50
2021/07/27 00:18:40;;;;;;;10.77;8.10;;;23.20;71.10;;;;;;10455326;28;20033;-45
2021/07/27 00:23:41;;;;;;;9.18;7.95;;;23.20;71.10;;;;;;10456220;28;20108;-47
2021/07/27 00:28:43;;;;;;;12.13;9.38;;;23.20;71.10;;;;;;10455031;28;20491;-50
2021/07/27 00:33:45;;;;;;;11.43;8.88;;;23.20;71.10;;;;;;10455216;28;20384;-47
2021/07/27 00:38:46;;;;;;;11.07;9.27;;;23.20;71.10;;;;;;10445973;28;20029;-47
2021/07/27 00:43:46;;;;;;;10.90;9.35;;;23.20;71.10;;;;;;10437085;28;20053;-45
2021/07/27 00:48:47;;;;;;;10.48;8.85;;;23.20;71.20;;;;;;10454314;28;20060;-46
2021/07/27 00:53:48;;;;;;;11.93;8.90;;;23.20;71.10;;;;;;10454724;28;20462;-47
2021/07/27 00:58:49;;;;;;;12.45;9.48;;;23.20;71.10;;;;;;10454611;28;20033;-45
2021/07/27 01:03:49;;;;;;;10.88;9.18;;;23.20;71.10;;;;;;10455589;28;20025;-46
2021/07/27 01:08:52;;;;;;;13.77;10.30;;;23.20;71.10;;;;;;10446144;28;20481;-46
2021/07/27 01:13:53;;;;;;;12.85;9.80;;;23.20;71.10;;;;;;10444699;28;20029;-45
2021/07/27 01:19:22;;;;;;;11.18;9.65;;;23.20;71.10;;;;;;10462054;28;20028;-46
2021/07/27 01:40:22;;;;;;;13.18;10.45;;;23.10;71.00;;;;;;10462150;28;20033;-50
2021/07/27 01:45:23;;;;;;;14.63;10.25;;;23.10;71.10;;;;;;10460712;28;20130;-47
2021/07/27 01:50:24;;;;;;;12.27;10.10;;;23.10;71.10;;;;;;10460563;28;20171;-48
2021/07/27 01:55:32;;;;;;;13.50;10.20;;;23.10;71.10;;;;;;10460532;28;20069;-48
2021/07/27 02:00:33;;;;;;;12.63;10.43;;;23.10;71.00;;;;;;10460194;28;20023;-50
2021/07/27 02:05:34;;;;;;;11.60;9.77;;;23.10;71.00;;;;;;10460230;28;20457;-46
2021/07/27 02:10:35;;;;;;;12.45;10.68;;;23.10;71.10;;;;;;10460077;28;20122;-47
2021/07/27 02:15:41;;;;;;;10.82;9.55;;;23.10;71.00;;;;;;10458526;28;20033;-46
2021/07/27 02:20:47;;;;;;;12.88;10.38;;;23.10;71.00;;;;;;10442355;28;20048;-45
2021/07/27 02:25:47;;;;;;;15.93;10.48;;;23.10;71.00;;;;;;10459549;28;20126;-47
2021/07/27 02:30:56;;;;;;;14.40;11.50;;;23.10;71.10;;;;;;10459483;28;20487;-46
2021/07/27 02:35:56;;;;;;;11.77;10.27;;;23.10;71.10;;;;;;10458895;28;20108;-45
2021/07/27 02:40:57;;;;;;;12.82;10.95;;;23.10;71.10;;;;;;10458690;28;20549;-46
2021/07/27 02:45:58;;;;;;;11.90;10.57;;;23.10;71.10;;;;;;10458708;28;20041;-47
2021/07/27 02:51:01;;;;;;;14.43;11.57;;;23.10;71.00;;;;;;10458499;28;20495;-47
2021/07/27 02:56:01;;;;;;;12.68;11.23;;;23.10;71.70;;;;;;10458642;28;20039;-47
2021/07/27 03:01:03;;;;;;;14.38;11.98;;;23.10;71.00;;;;;;10458108;28;20049;-46
2021/07/27 03:06:04;;;;;;;13.73;11.95;;;23.00;71.00;;;;;;10457693;28;20193;-47
2021/07/27 03:11:07;;;;;;;13.98;11.43;;;23.00;71.00;;;;;;10457773;28;20109;-48
2021/07/27 03:16:13;;;;;;;13.65;11.93;;;23.00;71.00;;;;;;10457461;28;20078;-47
2021/07/27 03:21:21;;;;;;;12.93;11.55;;;23.00;71.00;;;;;;10457958;28;20021;-48
2021/07/27 03:26:23;;;;;;;14.02;12.07;;;23.00;71.00;;;;;;10455496;28;20039;-51
2021/07/27 03:31:24;;;;;;;14.18;11.93;;;23.00;71.00;;;;;;10456481;28;20037;-45
2021/07/27 03:36:24;;;;;;;13.77;12.05;;;23.00;71.00;;;;;;10457037;28;20520;-49
2021/07/27 03:41:25;;;;;;;15.88;12.73;;;23.00;71.10;;;;;;10456584;28;20055;-46
2021/07/27 03:46:26;;;;;;;15.30;12.68;;;23.00;70.90;;;;;;10456322;28;20033;-45
2021/07/27 03:51:27;;;;;;;15.00;12.55;;;23.00;71.00;;;;;;10443141;28;20057;-46
2021/07/27 03:56:27;;;;;;;15.07;13.02;;;23.00;71.00;;;;;;10455388;28;20484;-49
2021/07/27 04:01:28;;;;;;;15.80;12.77;;;23.00;70.90;;;;;;10430364;28;20052;-46
2021/07/27 04:06:29;;;;;;;15.43;12.88;;;23.00;71.00;;;;;;10452255;28;20036;-51
2021/07/27 04:11:29;;;;;;;15.00;13.15;;;23.00;71.10;;;;;;10453676;28;20493;-51
2021/07/27 04:16:30;;;;;;;16.38;14.15;;;23.00;71.00;;;;;;10436880;28;20028;-49
2021/07/27 04:21:32;;;;;;;15.98;13.02;;;23.00;70.90;;;;;;10445718;28;20107;-46
2021/07/27 04:26:33;;;;;;;16.92;14.85;;;23.00;70.90;;;;;;10454354;28;20028;-49
2021/07/27 04:31:34;;;;;;;16.98;13.73;;;23.00;70.70;;;;;;10454067;28;20096;-47
2021/07/27 04:36:35;;;;;;;14.80;13.00;;;22.90;70.60;;;;;;10454414;28;20458;-45
2021/07/27 04:41:36;;;;;;;19.58;15.48;;;22.90;70.70;;;;;;10460261;28;20077;-45
2021/07/27 04:46:37;;;;;;;15.68;13.55;;;22.90;70.50;;;;;;10462803;28;20045;-47
2021/07/27 04:51:38;;;;;;;15.90;14.20;;;22.90;70.60;;;;;;10463064;28;20067;-48
2021/07/27 04:56:39;;;;;;;19.58;13.38;;;23.00;70.60;;;;;;10462619;28;20056;-48
2021/07/27 05:01:40;;;;;;;22.85;14.93;;;22.90;71.00;;;;;;10428286;28;20037;-49
2021/07/27 05:06:40;;;;;;;18.17;14.48;;;22.90;71.30;;;;;;10462582;28;20507;-48
2021/07/27 05:11:41;;;;;;;19.70;14.13;;;23.00;71.50;;;;;;10428135;28;20036;-53
2021/07/27 05:16:42;;;;;;;17.63;12.68;;;23.00;71.80;;;;;;10462094;28;20476;-47
2021/07/27 05:21:42;;;;;;;21.38;13.68;;;23.00;71.70;;;;;;10462585;28;20071;-46
2021/07/27 05:26:43;;;;;;;16.83;12.40;;;23.00;71.60;;;;;;10461343;28;20148;-52
2021/07/27 05:31:44;;;;;;;17.25;13.63;;;23.00;71.20;;;;;;10460730;28;20063;-47
2021/07/27 05:36:44;;;;;;;21.92;16.80;;;23.00;71.10;;;;;;10442709;28;20027;-46
2021/07/27 05:41:45;;;;;;;24.63;17.00;;;23.00;70.40;;;;;;10461094;28;20045;-46
2021/07/27 05:46:46;;;;;;;26.88;19.10;;;23.00;70.20;;;;;;10363084;28;20033;-48
2021/07/27 05:51:50;;;;;;;27.48;19.85;;;22.90;69.90;;;;;;10433424;28;20114;-47
2021/07/27 05:56:54;;;;;;;22.08;19.10;;;22.90;69.70;;;;;;10459617;28;20086;-47
2021/07/27 06:01:55;;;;;;;19.80;17.02;;;22.90;69.60;;;;;;10456824;28;20366;-51
2021/07/27 06:06:56;;;;;;;25.77;20.00;;;22.90;69.90;;;;;;10459101;28;20033;-48
2021/07/27 06:11:57;;;;;;;23.25;18.65;;;22.90;69.90;;;;;;10451796;28;20045;-49
2021/07/27 06:16:58;;;;;;;22.90;17.77;;;22.90;69.90;;;;;;10459228;28;20029;-47
2021/07/27 06:21:58;;;;;;;23.90;19.50;;;22.90;69.90;;;;;;10472298;28;20120;-47
2021/07/27 06:26:59;;;;;;;22.45;18.00;;;22.90;69.90;;;;;;10456666;28;20075;-48
2021/07/27 06:31:59;;;;;;;24.17;17.60;;;22.90;69.90;;;;;;10442235;28;20049;-50
2021/07/27 06:37:00;;;;;;;19.98;15.50;;;22.90;70.20;;;;;;10440945;28;20078;-50
2021/07/27 06:42:01;;;;;;;17.73;14.10;;;22.90;70.10;;;;;;10454772;28;20124;-49
2021/07/27 06:47:02;;;;;;;15.90;13.48;;;22.90;70.10;;;;;;10434803;28;20542;-47
2021/07/27 06:52:03;;;;;;;15.48;13.32;;;22.90;70.20;;;;;;10447806;28;20056;-52
2021/07/27 06:57:04;;;;;;;15.10;12.35;;;22.90;70.00;;;;;;10440508;28;20021;-47
2021/07/27 07:02:05;;;;;;;13.93;10.90;;;22.90;70.00;;;;;;10450328;28;20032;-49
2021/07/27 07:07:09;;;;;;;13.40;11.38;;;22.90;70.00;;;;;;10451005;28;20041;-47
2021/07/27 07:12:13;;;;;;;14.43;11.95;;;22.90;70.10;;;;;;10450858;28;20033;-48
2021/07/27 07:17:14;;;;;;;16.92;12.45;;;22.90;70.10;;;;;;10447951;28;20021;-52
2021/07/27 07:22:16;;;;;;;14.30;12.45;;;22.90;70.30;;;;;;10457582;28;20029;-50
2021/07/27 07:27:17;;;;;;;13.02;10.75;;;22.90;70.40;;;;;;10446600;28;20041;-49
2021/07/27 07:32:18;;;;;;;15.95;11.88;;;23.00;70.30;;;;;;10450784;28;20646;-49
2021/07/27 07:37:19;;;;;;;12.40;10.50;;;22.90;70.30;;;;;;10450009;28;20111;-51
2021/07/27 07:42:20;;;;;;;16.40;10.80;;;22.90;70.40;;;;;;10443002;28;20437;-53
2021/07/27 07:47:20;;;;;;;12.63;10.98;;;22.90;70.50;;;;;;10449428;28;20025;-51
2021/07/27 07:52:21;;;;;;;14.80;10.88;;;22.90;70.40;;;;;;10446826;28;20068;-50
2021/07/27 07:57:22;;;;;;;18.10;12.13;;;23.00;70.80;;;;;;10447524;28;20113;-52
2021/07/27 08:02:22;;;;;;;13.90;10.60;;;23.00;70.70;;;;;;10448717;28;20506;-50
2021/07/27 08:07:23;;;;;;;14.20;11.02;;;23.00;70.80;;;;;;10449169;28;20448;-50
2021/07/27 08:12:24;;;;;;;14.27;11.77;;;23.00;70.80;;;;;;10430960;28;20032;-52
2021/07/27 08:17:25;;;;;;;17.35;11.52;;;23.00;70.80;;;;;;10448863;28;20049;-51
2021/07/27 08:22:26;;;;;;;13.95;10.57;;;23.00;70.80;;;;;;10459877;28;20116;-51
2021/07/27 08:27:27;;;;;;;13.23;11.88;;;23.00;71.10;;;;;;10447551;28;20028;-50
2021/07/27 08:32:27;;;;;;;15.05;11.82;;;23.00;71.10;;;;;;10441994;28;20132;-52
2021/07/27 08:37:28;;;;;;;15.88;10.82;;;23.00;71.10;;;;;;10448237;28;20758;-49
2021/07/27 08:42:29;;;;;;;17.30;11.45;;;23.00;70.90;;;;;;10444632;28;20052;-51
2021/07/27 08:47:34;;;;;;;14.57;11.93;;;23.00;71.10;;;;;;10446381;28;20025;-49
2021/07/27 08:52:35;;;;;;;19.20;12.27;;;23.00;71.00;;;;;;10447587;28;20033;-51
2021/07/27 08:57:58;;;;;;;16.45;10.88;;;23.00;71.10;;;;;;10446543;28;20037;-48
2021/07/27 09:03:14;;;;;;;16.08;11.10;;;23.00;71.20;;;;;;10433266;28;20360;-49
2021/07/27 09:08:15;;;;;;;12.35;10.93;;;23.00;71.10;;;;;;10447522;28;20056;-48
2021/07/27 09:13:18;;;;;;;12.60;10.40;;;23.00;71.20;;;;;;10447537;28;20447;-47
2021/07/27 09:18:21;;;;;;;14.63;11.63;;;23.00;71.00;;;;;;10429593;28;20037;-48
2021/07/27 09:23:26;;;;;;;15.13;10.98;;;23.00;70.90;;;;;;10449187;28;20519;-47
2021/07/27 09:28:28;;;;;;;13.40;10.25;;;23.00;70.90;;;;;;10452653;28;20025;-48
2021/07/27 09:33:34;;;;;;;11.63;10.43;;;23.00;70.80;;;;;;10452307;28;20040;-47
2021/07/27 09:38:35;;;;;;;13.45;10.88;;;23.00;70.80;;;;;;10453387;28;20025;-50
2021/07/27 09:43:37;;;;;;;15.65;10.73;;;23.00;70.70;;;;;;10448234;28;20079;-48
2021/07/27 09:48:41;;;;;;;13.13;10.93;;;23.10;70.70;;;;;;10443181;28;20389;-51
2021/07/27 09:53:46;;;;;;;14.90;11.13;;;23.10;70.70;;;;;;10446028;28;20091;-48
2021/07/27 09:58:46;;;;;;;15.07;12.88;;;23.10;70.60;;;;;;10432740;28;20024;-49
2021/07/27 10:04:03;;;;;;;12.70;10.85;;;23.10;70.50;;;;;;10452804;28;20128;-52
2021/07/27 10:09:04;;;;;;;14.02;11.30;;;23.10;70.50;;;;;;10453242;28;20071;-48
2021/07/27 10:14:09;;;;;;;12.77;11.40;;;23.10;70.60;;;;;;10452781;28;20175;-48
2021/07/27 10:19:23;;;;;;;11.77;10.65;;;23.00;70.60;;;;;;10452667;28;20029;-53
2021/07/27 10:24:41;;;;;;;16.50;12.10;;;23.00;70.70;;;;;;10447094;28;20439;-53
2021/07/27 10:29:43;;;;;;;14.30;12.30;;;23.10;70.90;;;;;;10452557;28;20035;-49
2021/07/27 10:34:44;;;;;;;12.43;11.23;;;23.10;71.30;;;;;;10451108;28;20462;-50
2021/07/27 10:39:57;;;;;;;13.63;12.23;;;23.10;71.30;;;;;;10450436;28;20378;-51
2021/07/27 10:44:58;;;;;;;12.38;10.43;;;23.10;71.20;;;;;;10451037;28;20123;-48
2021/07/27 10:50:06;;;;;;;11.82;10.65;;;23.10;71.20;;;;;;10450877;28;20159;-54
2021/07/27 10:55:09;;;;;;;17.80;14.00;;;23.10;70.70;;;;;;10451714;28;20072;-53
2021/07/27 11:00:10;;;;;;;18.25;13.93;;;23.10;72.30;;;;;;10449259;28;20056;-54
2021/07/27 11:05:12;;;;;;;16.27;14.68;;;23.10;72.00;;;;;;10451040;28;20035;-49
2021/07/27 11:10:12;;;;;;;18.40;16.50;;;23.10;71.70;;;;;;10450809;28;20449;-52
2021/07/27 11:15:25;;;;;;;19.10;16.42;;;23.10;71.60;;;;;;10449811;28;20119;-48
2021/07/27 11:20:34;;;;;;;19.38;16.90;;;23.10;71.40;;;;;;10453658;28;20924;-49
2021/07/27 11:25:35;;;;;;;19.42;17.13;;;23.10;71.30;;;;;;10433106;28;20029;-50
2021/07/27 11:30:37;;;;;;;20.52;17.80;;;23.10;71.00;;;;;;10449646;28;20158;-52
2021/07/27 11:35:49;;;;;;;21.85;18.13;;;23.10;71.10;;;;;;10449415;28;20561;-49
2021/07/27 11:41:04;;;;;;;19.65;17.55;;;23.10;71.20;;;;;;10448552;28;20032;-46
2021/07/27 11:46:12;;;;;;;23.33;16.40;;;23.10;71.60;;;;;;10447911;28;20104;-47
2021/07/27 11:51:12;;;;;;;17.55;14.48;;;23.10;71.60;;;;;;10450370;28;20085;-50
2021/07/27 11:56:17;;;;;;;21.92;15.05;;;23.10;71.60;;;;;;10446014;28;20029;-48
2021/07/27 12:01:18;;;;;;;16.98;14.43;;;23.10;71.50;;;;;;10448487;28;20056;-48
2021/07/27 12:06:19;;;;;;;15.88;14.25;;;23.10;71.80;;;;;;10448877;28;20123;-52
2021/07/27 12:11:19;;;;;;;18.98;14.98;;;23.10;71.80;;;;;;10448516;28;20028;-53
2021/07/27 12:16:20;;;;;;;15.13;13.63;;;23.10;71.90;;;;;;10446944;28;20140;-50
2021/07/27 12:21:20;;;;;;;15.25;13.77;;;23.10;72.00;;;;;;10437989;28;20104;-49
2021/07/27 12:26:21;;;;;;;13.93;12.55;;;23.20;72.40;;;;;;10447451;28;20036;-51
2021/07/27 12:31:22;;;;;;;14.93;12.23;;;23.20;72.20;;;;;;10447578;28;20433;-52
2021/07/27 12:36:23;;;;;;;14.23;12.23;;;23.20;72.10;;;;;;10447111;28;20060;-54
2021/07/27 12:41:23;;;;;;;17.50;11.80;;;23.20;72.90;;;;;;10446823;28;20069;-52
2021/07/27 12:46:25;;;;;;;13.35;11.25;;;23.20;72.00;;;;;;10445749;28;20465;-53
2021/07/27 12:51:26;;;;;;;11.95;10.23;;;23.20;71.70;;;;;;10445473;28;20029;-53
2021/07/27 12:56:26;;;;;;;10.45;9.35;;;23.20;71.30;;;;;;10431005;28;20123;-52
2021/07/27 13:01:27;;;;;;;13.05;9.80;;;23.20;71.40;;;;;;10449186;28;20025;-47
2021/07/27 13:06:28;;;;;;;11.95;9.82;;;23.30;71.40;;;;;;10454048;28;20049;-54
2021/07/27 13:11:29;;;;;;;11.68;9.27;;;23.30;71.40;;;;;;10436624;28;20054;-53
2021/07/27 13:16:32;;;;;;;10.73;9.30;;;23.30;71.50;;;;;;10454790;28;20033;-54
2021/07/27 13:21:33;;;;;;;13.98;8.82;;;23.30;71.50;;;;;;10460902;28;20123;-56
2021/07/27 13:26:34;;;;;;;13.57;7.90;;;23.40;71.50;;;;;;10454128;28;20037;-57
2021/07/27 13:31:35;;;;;;;13.82;9.13;;;23.40;71.60;;;;;;10435179;28;20116;-57
2021/07/27 13:36:36;;;;;;;11.10;7.93;;;23.40;71.50;;;;;;10453125;28;20037;-57
2021/07/27 13:41:36;;;;;;;13.77;9.23;;;23.40;71.50;;;;;;10435554;28;20107;-57
2021/07/27 13:46:37;;;;;;;13.73;9.00;;;23.40;71.50;;;;;;10434920;28;20111;-56
2021/07/27 13:51:38;;;;;;;14.70;8.68;;;23.40;71.50;;;;;;10435496;28;20072;-57
2021/07/27 13:56:38;;;;;;;11.00;8.85;;;23.40;71.50;;;;;;10451967;28;20043;-56
2021/07/27 14:01:39;;;;;;;9.38;7.88;;;23.40;71.60;;;;;;10452071;28;20094;-56
2021/07/27 14:06:40;;;;;;;10.68;8.45;;;23.40;71.60;;;;;;10451330;28;20128;-57
2021/07/27 14:11:40;;;;;;;8.82;7.65;;;23.30;71.50;;;;;;10456663;28;20117;-57
2021/07/27 14:16:42;;;;;;;9.88;8.25;;;23.40;71.60;;;;;;10452185;28;20057;-57
2021/07/27 14:21:42;;;;;;;8.65;7.35;;;23.30;71.50;;;;;;10451226;28;20033;-57
2021/07/27 14:26:43;;;;;;;8.05;7.15;;;23.30;71.60;;;;;;10433615;28;20037;-57
2021/07/27 14:31:45;;;;;;;10.98;8.30;;;23.30;71.70;;;;;;10447001;28;20528;-57
2021/07/27 14:36:46;;;;;;;11.10;7.75;;;23.30;71.50;;;;;;10433369;28;20045;-57
2021/07/27 14:41:47;;;;;;;9.40;7.28;;;23.30;71.30;;;;;;10451038;28;20120;-58
2021/07/27 14:46:47;;;;;;;9.35;6.78;;;23.30;71.10;;;;;;10452217;28;20021;-57
2021/07/27 14:51:49;;;;;;;13.43;7.63;;;23.30;70.90;;;;;;10450772;28;20040;-57
2021/07/27 14:56:50;;;;;;;10.57;7.10;;;23.30;70.90;;;;;;10450572;28;20571;-57
2021/07/27 15:01:50;;;;;;;9.57;7.38;;;23.30;70.90;;;;;;10450050;28;20075;-57
2021/07/27 15:06:51;;;;;;;10.57;7.32;;;23.30;70.80;;;;;;10449793;28;20037;-57
2021/07/27 15:11:52;;;;;;;10.15;6.75;;;23.30;70.80;;;;;;10450121;28;20033;-57
2021/07/27 15:16:52;;;;;;;10.38;6.97;;;23.30;70.60;;;;;;10449340;28;20128;-58
2021/07/27 15:21:54;;;;;;;11.88;7.28;;;23.30;70.70;;;;;;10449987;28;20027;-57
2021/07/27 15:26:54;;;;;;;7.82;6.47;;;23.30;70.70;;;;;;10448864;28;20508;-58
2021/07/27 15:31:55;;;;;;;10.55;7.68;;;23.30;70.70;;;;;;10449678;28;20083;-57
2021/07/27 15:36:56;;;;;;;15.77;7.88;;;23.30;71.50;;;;;;10449048;28;20557;-58
2021/07/27 15:41:56;;;;;;;11.38;7.22;;;23.30;72.10;;;;;;10429412;28;20145;-57
2021/07/27 15:46:57;;;;;;;15.52;7.25;;;23.30;71.80;;;;;;10449316;28;20063;-57
2021/07/27 15:51:58;;;;;;;9.00;6.88;;;23.30;70.80;;;;;;10448816;28;20021;-58
2021/07/27 15:56:59;;;;;;;13.52;8.73;;;23.30;71.10;;;;;;10448843;28;20111;-58
2021/07/27 16:02:00;;;;;;;17.40;11.40;;;23.30;71.80;;;;;;10448802;28;20470;-57
2021/07/27 16:07:03;;;;;;;16.38;12.35;;;23.30;72.10;;;;;;10458343;28;20052;-57
2021/07/27 16:12:04;;;;;;;15.50;11.32;;;23.30;72.00;;;;;;10434080;28;20667;-57
2021/07/27 16:17:05;;;;;;;13.77;11.25;;;23.40;72.00;;;;;;10443519;28;20040;-58
2021/07/27 16:22:07;;;;;;;14.63;11.88;;;23.30;71.80;;;;;;10454842;28;20036;-57
2021/07/27 16:27:07;;;;;;;18.92;13.13;;;23.40;72.60;;;;;;10447729;28;20680;-58
2021/07/27 16:32:08;;;;;;;17.25;12.35;;;23.40;72.00;;;;;;10448368;28;20071;-54
2021/07/27 16:37:13;;;;;;;15.70;10.70;;;23.40;71.70;;;;;;10453207;28;20032;-55
2021/07/27 16:42:14;;;;;;;12.32;10.10;;;23.40;71.80;;;;;;10451318;28;20655;-55
2021/07/27 16:47:15;;;;;;;16.35;11.63;;;23.40;71.90;;;;;;10456504;28;20067;-54
2021/07/27 16:52:16;;;;;;;13.05;10.93;;;23.30;71.70;;;;;;10456217;28;20033;-53
2021/07/27 16:57:16;;;;;;;13.95;11.32;;;23.40;72.00;;;;;;10456349;28;20448;-54
2021/07/27 17:02:17;;;;;;;17.23;10.70;;;23.30;71.70;;;;;;10456109;28;20037;-55
2021/07/27 17:07:18;;;;;;;16.05;11.05;;;23.30;71.70;;;;;;10456365;28;20162;-55
2021/07/27 17:12:19;;;;;;;14.40;10.82;;;23.30;71.80;;;;;;10455558;28;20074;-54
2021/07/27 17:17:19;;;;;;;12.95;10.73;;;23.30;71.70;;;;;;10455544;28;20059;-53
2021/07/27 17:22:20;;;;;;;14.82;10.82;;;23.30;71.60;;;;;;10437255;28;20102;-52
2021/07/27 17:27:21;;;;;;;13.15;9.82;;;23.30;72.30;;;;;;10442332;28;20063;-52
2021/07/27 17:32:22;;;;;;;11.82;10.55;;;23.30;71.80;;;;;;10454024;28;20124;-50
2021/07/27 17:37:24;;;;;;;14.60;11.25;;;23.30;71.90;;;;;;10454392;28;20067;-50
2021/07/27 17:42:26;;;;;;;14.13;10.18;;;23.30;72.60;;;;;;10448838;28;20501;-53
2021/07/27 17:47:28;;;;;;;15.13;10.40;;;23.20;72.90;;;;;;10453705;28;20064;-50
2021/07/27 17:52:29;;;;;;;11.48;10.27;;;23.30;72.60;;;;;;10450448;28;20091;-49
2021/07/27 17:57:30;;;;;;;11.70;9.65;;;23.30;72.30;;;;;;10448092;28;20017;-48
2021/07/27 18:02:37;;;;;;;11.32;9.13;;;23.30;71.90;;;;;;10451372;28;20029;-50
2021/07/27 18:07:38;;;;;;;10.68;8.20;;;23.30;71.30;;;;;;10441526;28;20043;-50
2021/07/27 18:12:39;;;;;;;11.57;8.88;;;23.30;70.90;;;;;;10439408;28;20366;-49
2021/07/27 18:17:41;;;;;;;10.30;7.80;;;23.20;70.40;;;;;;10434035;28;20037;-50
2021/07/27 18:22:42;;;;;;;9.93;7.72;;;23.20;70.10;;;;;;10453447;28;20504;-50
2021/07/27 18:27:44;;;;;;;8.32;6.80;;;23.20;69.70;;;;;;10433040;28;20044;-52
2021/07/27 18:32:45;;;;;;;7.85;6.90;;;23.20;69.50;;;;;;10450060;28;20041;-48
2021/07/27 18:37:46;;;;;;;7.45;6.47;;;23.20;69.30;;;;;;10432017;28;20049;-48
2021/07/27 18:42:46;;;;;;;10.80;7.75;;;23.20;69.00;;;;;;10428751;28;20048;-52
2021/07/27 18:47:47;;;;;;;8.65;6.63;;;23.20;69.50;;;;;;10451677;28;20041;-51
2021/07/27 18:52:52;;;;;;;7.93;7.10;;;23.20;69.80;;;;;;10451960;28;20116;-48
2021/07/27 18:57:53;;;;;;;7.70;6.95;;;23.20;70.10;;;;;;10450765;28;20033;-50
2021/07/27 19:02:54;;;;;;;8.20;6.25;;;23.30;71.00;;;;;;10450722;28;20052;-52
2021/07/27 19:07:55;;;;;;;9.07;6.80;;;23.30;70.70;;;;;;10450354;28;20040;-57
2021/07/27 19:12:56;;;;;;;9.98;7.15;;;23.30;70.70;;;;;;10450457;28;20489;-54
2021/07/27 19:18:00;;;;;;;8.57;7.05;;;23.30;71.20;;;;;;10450483;28;20485;-54
2021/07/27 19:23:01;;;;;;;8.18;6.05;;;23.30;71.30;;;;;;10450700;28;20040;-54
2021/07/27 19:28:03;;;;;;;8.05;6.63;;;23.30;71.30;;;;;;10430263;28;20071;-54
2021/07/27 19:33:04;;;;;;;8.77;6.15;;;23.30;71.30;;;;;;10450357;28;20044;-55
2021/07/27 19:38:07;;;;;;;8.80;5.90;;;23.30;71.30;;;;;;10432106;28;20029;-55
2021/07/27 19:48:20;;;;;;;7.72;6.03;;;23.30;71.40;;;;;;10449913;28;20135;-55
2021/07/27 19:53:20;;;;;;;6.85;6.03;;;23.30;71.30;;;;;;10448773;28;20037;-53
2021/07/27 19:58:21;;;;;;;7.75;6.18;;;23.30;71.20;;;;;;10446201;28;20457;-52
2021/07/27 20:03:22;;;;;;;6.68;5.63;;;23.30;71.20;;;;;;10438244;28;20025;-51
2021/07/27 20:08:23;;;;;;;7.65;5.97;;;23.30;71.20;;;;;;10453617;28;20040;-51
2021/07/27 20:13:25;;;;;;;6.22;5.45;;;23.20;71.10;;;;;;10455194;28;20183;-51
2021/07/27 20:18:26;;;;;;;7.30;6.10;;;23.20;71.10;;;;;;10455620;28;20435;-53
2021/07/27 20:23:26;;;;;;;6.97;5.97;;;23.20;71.00;;;;;;10460949;28;20075;-53
2021/07/27 20:28:27;;;;;;;7.00;5.35;;;23.20;71.00;;;;;;10453937;28;20036;-50
2021/07/27 20:33:28;;;;;;;7.05;5.53;;;23.20;70.90;;;;;;10454437;28;20045;-51
2021/07/27 20:38:30;;;;;;;6.53;5.38;;;23.20;70.90;;;;;;10435225;28;20025;-52
2021/07/27 20:43:30;;;;;;;6.22;5.22;;;23.10;70.80;;;;;;10452906;28;20394;-50
2021/07/27 20:48:31;;;;;;;6.90;6.28;;;23.10;70.80;;;;;;10453175;28;20040;-50
2021/07/27 20:53:32;;;;;;;6.75;5.72;;;23.10;70.80;;;;;;10454477;28;20037;-52
2021/07/27 20:58:32;;;;;;;7.93;5.60;;;23.10;70.70;;;;;;10454717;28;20448;-50
2021/07/27 21:03:35;;;;;;;7.65;5.50;;;23.10;70.70;;;;;;10455263;28;20057;-52
2021/07/27 21:08:36;;;;;;;7.28;5.90;;;23.10;70.60;;;;;;10437836;28;20130;-52
2021/07/27 21:13:37;;;;;;;6.47;5.53;;;23.10;70.70;;;;;;10454789;28;20447;-49
2021/07/27 21:18:37;;;;;;;6.88;5.25;;;23.10;70.70;;;;;;10454705;28;20033;-50
2021/07/27 21:23:38;;;;;;;6.03;5.43;;;23.10;70.70;;;;;;10471883;28;20112;-54
2021/07/27 21:28:41;;;;;;;6.68;5.70;;;23.10;70.70;;;;;;10444845;28;20116;-49
2021/07/27 21:33:45;;;;;;;6.28;5.68;;;23.10;70.70;;;;;;10461647;28;20044;-50
2021/07/27 21:38:47;;;;;;;6.68;5.75;;;23.10;70.60;;;;;;10461272;28;20028;-53
2021/07/27 21:43:48;;;;;;;6.45;5.78;;;23.00;70.60;;;;;;10461423;28;20057;-50
2021/07/27 21:48:50;;;;;;;5.85;5.25;;;23.00;70.50;;;;;;10438637;28;20041;-53
2021/07/27 21:53:51;;;;;;;7.03;5.63;;;23.00;70.40;;;;;;10460985;28;20037;-51
2021/07/27 21:58:51;;;;;;;5.45;4.80;;;23.00;70.40;;;;;;10460735;28;20043;-51
2021/07/27 22:03:52;;;;;;;7.22;5.65;;;23.00;70.40;;;;;;10460012;28;20103;-51
2021/07/27 22:08:53;;;;;;;5.78;5.15;;;23.00;70.40;;;;;;10460315;28;20060;-53
2021/07/27 22:13:54;;;;;;;5.95;4.90;;;23.00;70.40;;;;;;10460222;28;20091;-51
2021/07/27 22:18:55;;;;;;;6.25;5.03;;;23.00;70.30;;;;;;10459927;28;20071;-52
2021/07/27 22:23:56;;;;;;;6.00;5.10;;;23.00;70.20;;;;;;10465766;28;20487;-50
2021/07/27 22:28:56;;;;;;;5.93;4.95;;;23.00;70.00;;;;;;10459230;28;20068;-53
2021/07/27 22:33:58;;;;;;;6.20;5.07;;;23.00;70.00;;;;;;10459667;28;20116;-52
2021/07/27 22:39:01;;;;;;;5.85;4.93;;;23.00;70.00;;;;;;10459240;28;20043;-52
2021/07/27 22:44:02;;;;;;;6.07;5.07;;;22.90;69.80;;;;;;10459304;28;20569;-50
2021/07/27 22:49:03;;;;;;;6.57;5.50;;;23.00;70.00;;;;;;10458357;28;20029;-52
2021/07/27 22:54:04;;;;;;;6.45;5.28;;;22.90;69.90;;;;;;10458841;28;20114;-51
2021/07/27 22:59:05;;;;;;;6.57;5.40;;;22.90;69.80;;;;;;10458200;28;20129;-51
2021/07/27 23:04:06;;;;;;;7.07;5.40;;;22.90;69.80;;;;;;10458506;28;20501;-50
2021/07/27 23:09:06;;;;;;;6.20;4.90;;;22.90;69.80;;;;;;10457617;28;20136;-51
2021/07/27 23:14:07;;;;;;;7.05;5.45;;;22.90;69.80;;;;;;10458003;28;20469;-51
2021/07/27 23:19:08;;;;;;;6.43;4.78;;;22.90;69.70;;;;;;10457645;28;20079;-52
2021/07/27 23:24:08;;;;;;;7.10;5.85;;;22.90;69.60;;;;;;10445489;28;20033;-49
2021/07/27 23:29:10;;;;;;;6.13;5.38;;;22.90;69.70;;;;;;10456908;28;20029;-50
2021/07/27 23:34:11;;;;;;;6.05;5.18;;;22.90;69.70;;;;;;10457516;28;20041;-50
2021/07/27 23:39:11;;;;;;;6.20;5.32;;;22.90;69.60;;;;;;10456811;28;20115;-54
2021/07/27 23:44:12;;;;;;;7.32;5.22;;;22.90;69.60;;;;;;10456495;28;20412;-52
2021/07/27 23:49:12;;;;;;;5.63;5.03;;;22.80;69.60;;;;;;10456241;28;20433;-52
2021/07/27 23:54:13;;;;;;;7.00;5.68;;;22.90;69.60;;;;;;10456524;28;20040;-52
2021/07/27 23:59:14;;;;;;;8.07;6.13;;;22.90;69.60;;;;;;10455768;28;20108;-51
